Portada
METAR-TAF:

METAR-TAF

Aeropuertos :

Ciudad Ho Chi Minh, Vietnam

Aeropuerto Internacional de Tan Son Nhat

latitud: 10-49N, longitud: 106-40E, altitud: 19 m

Observación

El informe se hizo hace 40 minutos, a las 12:30 UTC
Viento 8 kt del este-sureste, variando entre noreste y sur-sureste
Temperatura 29°C
Humedad 66%
Presión 1010 hPa
Visibilidad 10 km o más
Escasas nubes a una altura de 2000 ft

METAR: VVTS 261230Z 12008KT 040V150 9999 FEW020 29/22 Q1010 NOSIG

Hora: 20:10 (13:10 UTC)

Pronóstico

El informe se hizo hace 2 horas y 10 minutos, a las 11:00 UTC
Pronóstico válido del 26 a las 12 UTC al 27 a las 18 UTC
Viento 10 kt del este
Visibilidad 10 km o más
Nubes dispersas a una altura de 2000 ft
Temporalmente
del 27 a las 07 UTC al 27 a las 12 UTC
Viento 15 kt del sureste con ráfagas de 26 kt

TAF: VVTS 261100Z 2612/2718 10010KT 9999 SCT020 TEMPO 2707/2712 14015G26KT

Observaciones y pronósticos meteorológicos de más de 4000 aeropuertos (mensajes METAR y TAF).

Los puntos amarillos y rojos representan las estaciones disponibles.

Ponga el ratón en el punto deseado para ver el nombre de la estación.

Haga clic para ver las observaciones y los pronósticos meteorológicos.

Para cambiar el mapa : haga clic en los botones verdes con una cruz de color negro para hacer un zoom, en el botón verde con un guión para alejar o en las flechas verdes para mapas adyacentes.


METAR-TAF: